createdAt,value
2023-03-06T00:00:25.335Z,4.90
2023-03-06T00:02:53.986Z,4.90
2023-03-06T00:05:22.667Z,4.90
2023-03-06T00:07:51.305Z,4.90
2023-03-06T00:10:21.650Z,4.90
2023-03-06T00:12:52.086Z,4.80
2023-03-06T00:15:22.280Z,4.80
2023-03-06T00:17:50.737Z,4.70
2023-03-06T00:20:20.027Z,4.60
2023-03-06T00:22:48.957Z,4.60
2023-03-06T00:25:19.382Z,4.60
2023-03-06T00:27:47.804Z,4.60
2023-03-06T00:30:18.171Z,4.60
2023-03-06T00:32:48.102Z,4.50
2023-03-06T00:35:17.301Z,4.40
2023-03-06T00:37:46.155Z,4.30
2023-03-06T00:40:17.075Z,4.20
2023-03-06T00:42:45.580Z,4.10
2023-03-06T00:45:14.777Z,4.10
2023-03-06T00:47:43.121Z,4.10
2023-03-06T00:50:13.473Z,4.20
2023-03-06T00:52:42.315Z,4.20
2023-03-06T00:55:11.769Z,4.10
2023-03-06T00:57:40.021Z,4.10
2023-03-06T01:00:10.041Z,4.20
2023-03-06T01:02:38.274Z,4.20
2023-03-06T01:05:07.992Z,4.20
2023-03-06T01:07:37.983Z,4.00
2023-03-06T01:10:08.661Z,4.00
2023-03-06T01:12:37.194Z,3.90
2023-03-06T01:15:06.464Z,3.90
2023-03-06T01:17:36.514Z,3.90
2023-03-06T01:20:05.589Z,3.90
2023-03-06T01:22:34.047Z,3.90
2023-03-06T01:25:03.848Z,3.90
2023-03-06T01:27:32.238Z,3.90
2023-03-06T01:30:00.583Z,3.80
2023-03-06T01:32:28.910Z,3.90
2023-03-06T01:34:57.349Z,3.90
2023-03-06T01:37:25.703Z,4.00
2023-03-06T01:39:54.083Z,4.00
2023-03-06T01:42:24.023Z,4.10
2023-03-06T01:45:03.280Z,4.20
2023-03-06T01:47:31.642Z,4.20
2023-03-06T01:50:03.769Z,4.20
2023-03-06T01:52:36.559Z,4.20
2023-03-06T01:55:12.458Z,4.30
2023-03-06T01:57:45.451Z,4.30
2023-03-06T02:00:17.164Z,4.40
2023-03-06T02:02:50.579Z,4.40
2023-03-06T02:05:19.189Z,4.40
2023-03-06T02:07:48.838Z,4.50
2023-03-06T02:10:17.963Z,4.50
2023-03-06T02:12:49.631Z,4.50
2023-03-06T02:15:20.751Z,4.50
2023-03-06T02:17:51.386Z,4.50
2023-03-06T02:20:26.478Z,4.50
2023-03-06T02:23:03.013Z,4.50
2023-03-06T02:25:43.516Z,4.60
2023-03-06T02:28:14.813Z,4.60
2023-03-06T02:30:44.334Z,4.60
2023-03-06T02:33:16.537Z,4.60
2023-03-06T02:35:50.767Z,4.70
2023-03-06T02:38:22.967Z,4.60
2023-03-06T02:40:54.005Z,4.60
2023-03-06T02:43:26.066Z,4.70
2023-03-06T02:45:54.910Z,4.70
2023-03-06T02:48:23.433Z,4.70
2023-03-06T02:50:51.842Z,4.70
2023-03-06T02:53:21.429Z,4.70
2023-03-06T02:55:50.610Z,4.70
2023-03-06T02:58:21.269Z,4.70
2023-03-06T03:00:50.672Z,4.80
2023-03-06T03:03:20.530Z,4.80
2023-03-06T03:05:48.831Z,4.80
2023-03-06T03:08:24.443Z,4.80
2023-03-06T03:10:57.769Z,4.80
2023-03-06T03:13:30.546Z,4.90
2023-03-06T03:16:00.348Z,4.90
2023-03-06T03:18:29.071Z,4.90
2023-03-06T03:20:57.370Z,4.90
2023-03-06T03:23:26.422Z,4.90
2023-03-06T03:26:06.503Z,4.90
2023-03-06T03:28:37.855Z,4.90
2023-03-06T03:31:08.878Z,4.90
2023-03-06T03:33:37.386Z,4.90
2023-03-06T03:36:08.156Z,5.00
2023-03-06T03:38:40.615Z,5.00
2023-03-06T03:41:08.965Z,5.10
2023-03-06T03:43:39.272Z,5.10
2023-03-06T03:46:07.727Z,5.10
2023-03-06T03:48:36.087Z,5.10
2023-03-06T03:51:07.160Z,5.00
2023-03-06T03:53:38.145Z,4.90
2023-03-06T03:56:07.496Z,4.80
2023-03-06T03:58:43.098Z,4.60
2023-03-06T04:01:11.931Z,4.40
2023-03-06T04:03:40.397Z,4.20
2023-03-06T04:06:10.460Z,4.10
2023-03-06T04:08:40.008Z,4.10
2023-03-06T04:11:08.881Z,4.10
2023-03-06T04:13:37.137Z,4.10
2023-03-06T04:16:09.207Z,4.20
2023-03-06T04:18:39.981Z,4.20
2023-03-06T04:21:09.306Z,4.20
2023-03-06T04:23:38.802Z,4.20
2023-03-06T04:26:07.996Z,4.20
2023-03-06T04:28:36.771Z,4.30
2023-03-06T04:31:05.366Z,4.30
2023-03-06T04:33:35.081Z,4.30
2023-03-06T04:36:03.739Z,4.20
2023-03-06T04:38:34.478Z,4.30
2023-03-06T04:41:05.386Z,4.30
2023-03-06T04:43:33.859Z,4.30
2023-03-06T04:46:02.141Z,4.20
2023-03-06T04:48:30.467Z,4.20
2023-03-06T04:51:00.058Z,4.20
2023-03-06T04:53:28.342Z,4.10
2023-03-06T04:55:56.632Z,4.10
2023-03-06T04:58:25.207Z,4.10
2023-03-06T05:00:53.567Z,4.10
2023-03-06T05:03:22.031Z,4.00
2023-03-06T05:05:50.478Z,4.00
2023-03-06T05:08:20.282Z,4.00
2023-03-06T05:10:54.963Z,4.00
2023-03-06T05:13:23.287Z,4.00
2023-03-06T05:15:51.659Z,4.00
2023-03-06T05:18:20.952Z,4.00
2023-03-06T05:20:49.172Z,4.00
2023-03-06T05:23:17.491Z,4.00
2023-03-06T05:25:47.231Z,4.00
2023-03-06T05:28:15.565Z,4.00
2023-03-06T05:30:44.064Z,3.90
2023-03-06T05:33:12.430Z,4.00
2023-03-06T05:35:40.706Z,4.00
2023-03-06T05:38:09.765Z,4.00
2023-03-06T05:40:40.334Z,4.10
2023-03-06T05:43:10.394Z,4.10
2023-03-06T05:45:39.483Z,4.20
2023-03-06T05:48:08.072Z,4.20
2023-03-06T05:50:36.367Z,4.30
2023-03-06T05:53:04.839Z,4.20
2023-03-06T05:55:33.225Z,4.20
2023-03-06T05:58:01.651Z,4.20
2023-03-06T06:00:31.505Z,4.20
2023-03-06T06:03:02.891Z,4.30
2023-03-06T06:05:31.158Z,4.40
2023-03-06T06:07:59.306Z,4.30
2023-03-06T06:10:27.487Z,4.20
2023-03-06T06:12:55.766Z,4.20
2023-03-06T06:15:24.027Z,4.30
2023-03-06T06:17:53.754Z,4.40
2023-03-06T06:20:22.006Z,4.40
2023-03-06T06:22:50.442Z,4.50
2023-03-06T06:25:19.226Z,4.50
2023-03-06T06:27:47.536Z,4.50
2023-03-06T06:30:16.242Z,4.60
2023-03-06T06:32:44.468Z,4.60
2023-03-06T06:35:14.083Z,4.50
2023-03-06T06:37:42.295Z,4.50
2023-03-06T06:40:11.796Z,4.40
2023-03-06T06:42:40.498Z,4.40
2023-03-06T06:45:10.389Z,4.50
2023-03-06T06:47:41.421Z,4.40
2023-03-06T06:50:14.798Z,4.50
2023-03-06T06:52:43.081Z,4.50
2023-03-06T06:55:12.768Z,4.30
2023-03-06T06:57:42.536Z,4.20
2023-03-06T07:00:14.076Z,4.20
2023-03-06T07:02:42.968Z,4.30
2023-03-06T07:05:13.364Z,4.30
2023-03-06T07:07:41.753Z,4.30
2023-03-06T07:10:14.199Z,4.20
2023-03-06T07:12:42.605Z,4.20
2023-03-06T07:15:13.633Z,4.30
2023-03-06T07:17:41.840Z,4.30
2023-03-06T07:20:12.614Z,4.40
2023-03-06T07:22:51.007Z,4.40
2023-03-06T07:25:20.744Z,4.50
2023-03-06T07:27:53.717Z,4.50
2023-03-06T07:30:23.002Z,4.50
2023-03-06T07:32:55.179Z,4.60
2023-03-06T07:35:24.123Z,4.70
2023-03-06T07:37:54.430Z,4.70
2023-03-06T07:40:22.957Z,4.80
2023-03-06T07:42:51.209Z,4.80
2023-03-06T07:45:25.936Z,4.70
2023-03-06T07:47:55.045Z,4.70
2023-03-06T07:50:23.699Z,4.90
2023-03-06T07:52:54.139Z,5.00
2023-03-06T07:55:22.527Z,5.00
2023-03-06T07:57:52.258Z,5.10
2023-03-06T08:00:21.324Z,5.10
2023-03-06T08:02:50.397Z,5.20
2023-03-06T08:05:19.024Z,5.30
2023-03-06T08:07:47.332Z,5.40
2023-03-06T08:10:17.932Z,5.30
2023-03-06T08:12:46.553Z,5.10
2023-03-06T08:15:15.509Z,5.10
2023-03-06T08:17:44.291Z,5.00
2023-03-06T08:20:14.443Z,4.90
2023-03-06T08:22:42.753Z,5.00
2023-03-06T08:25:13.239Z,5.30
2023-03-06T08:27:43.389Z,5.40
2023-03-06T08:30:13.490Z,5.60
2023-03-06T08:32:42.292Z,5.70
2023-03-06T08:35:11.418Z,5.70
2023-03-06T08:37:39.897Z,5.80
2023-03-06T08:40:09.615Z,5.90
2023-03-06T08:42:37.989Z,5.90
2023-03-06T08:45:09.982Z,5.90
2023-03-06T08:47:38.879Z,6.00
2023-03-06T08:50:07.495Z,6.00
2023-03-06T08:52:35.861Z,6.10
2023-03-06T08:55:05.252Z,6.10
2023-03-06T08:57:33.497Z,6.10
2023-03-06T09:00:01.784Z,6.10
2023-03-06T09:02:31.637Z,6.10
2023-03-06T09:05:01.282Z,6.10
2023-03-06T09:07:30.501Z,6.20
2023-03-06T09:09:58.779Z,6.20
2023-03-06T09:12:29.294Z,6.30
2023-03-06T09:14:59.205Z,6.30
2023-03-06T09:17:27.679Z,6.20
2023-03-06T09:19:57.321Z,6.20
2023-03-06T09:22:25.543Z,6.20
2023-03-06T09:24:54.126Z,6.20
2023-03-06T09:27:22.846Z,6.20
2023-03-06T09:29:51.371Z,6.20
2023-03-06T09:32:19.727Z,6.20
2023-03-06T09:34:47.975Z,6.20
2023-03-06T09:37:19.076Z,6.20
2023-03-06T09:39:47.497Z,6.30
2023-03-06T09:42:19.822Z,6.30
2023-03-06T09:44:52.657Z,6.30
2023-03-06T09:47:45.654Z,6.30
2023-03-06T09:50:45.411Z,6.30
2023-03-06T09:53:27.214Z,6.30
2023-03-06T09:56:01.835Z,6.30
2023-03-06T09:58:33.512Z,6.30
2023-03-06T10:01:06.062Z,6.30
2023-03-06T10:03:40.632Z,6.30
2023-03-06T10:06:16.540Z,6.30
2023-03-06T10:08:50.811Z,6.40
2023-03-06T10:11:25.457Z,6.40
2023-03-06T10:14:00.018Z,6.40
2023-03-06T10:16:30.498Z,6.40
2023-03-06T10:19:05.489Z,6.40
2023-03-06T10:21:45.612Z,6.30
2023-03-06T10:24:45.186Z,6.30
2023-03-06T10:27:23.671Z,6.40
2023-03-06T10:30:03.123Z,6.40
2023-03-06T10:32:48.244Z,6.40
2023-03-06T10:35:23.393Z,6.40
2023-03-06T10:37:51.655Z,6.40
2023-03-06T10:40:25.145Z,6.40
2023-03-06T10:43:05.114Z,6.50
2023-03-06T10:45:49.944Z,6.50
2023-03-06T10:48:21.640Z,6.50
2023-03-06T10:50:50.362Z,6.60
2023-03-06T10:53:25.419Z,6.60
2023-03-06T10:55:57.570Z,6.60
2023-03-06T10:58:28.477Z,6.70
2023-03-06T11:01:09.427Z,6.70
2023-03-06T11:03:38.112Z,6.80
2023-03-06T11:06:12.677Z,6.80
2023-03-06T11:08:42.296Z,6.80
2023-03-06T11:11:15.064Z,6.90
2023-03-06T11:13:45.741Z,6.90
2023-03-06T11:16:23.806Z,6.80
2023-03-06T11:18:59.828Z,6.80
2023-03-06T11:21:31.924Z,6.80
2023-03-06T11:24:04.924Z,6.90
2023-03-06T11:26:44.828Z,6.90
2023-03-06T11:29:39.227Z,7.00
2023-03-06T11:32:13.396Z,7.10
2023-03-06T11:34:50.509Z,7.20
2023-03-06T11:37:31.129Z,7.30
2023-03-06T11:40:07.466Z,7.40
2023-03-06T11:42:41.743Z,7.40
2023-03-06T11:45:25.422Z,7.40
2023-03-06T11:48:01.658Z,7.40
2023-03-06T11:50:34.693Z,7.40
2023-03-06T11:53:04.823Z,7.50
2023-03-06T11:55:55.816Z,7.60
2023-03-06T11:58:46.417Z,7.70
2023-03-06T12:01:22.740Z,7.70
2023-03-06T12:04:16.983Z,7.70
2023-03-06T12:06:54.575Z,7.60
2023-03-06T12:09:32.197Z,7.70
2023-03-06T12:12:21.740Z,7.70
2023-03-06T12:15:13.872Z,7.80
2023-03-06T12:18:09.932Z,7.90
2023-03-06T12:20:49.023Z,8.00
2023-03-06T12:23:32.401Z,8.00
2023-03-06T12:26:07.993Z,8.00
2023-03-06T12:28:51.656Z,8.00
2023-03-06T12:31:37.296Z,8.10
2023-03-06T12:34:19.538Z,8.20
2023-03-06T12:36:59.518Z,8.30
2023-03-06T12:39:40.044Z,8.30
2023-03-06T12:42:26.387Z,8.30
2023-03-06T12:45:18.580Z,8.30
2023-03-06T12:47:49.340Z,8.30
2023-03-06T12:50:32.047Z,8.30
2023-03-06T12:53:03.867Z,8.20
2023-03-06T12:55:41.115Z,8.20
2023-03-06T12:58:35.275Z,8.30
2023-03-06T13:01:08.321Z,8.40
2023-03-06T13:03:53.242Z,8.60
2023-03-06T13:06:51.389Z,8.60
2023-03-06T13:09:25.133Z,8.60
2023-03-06T13:12:23.682Z,8.60
2023-03-06T13:14:55.492Z,8.70
2023-03-06T13:17:38.341Z,8.70
2023-03-06T13:20:35.535Z,8.50
2023-03-06T13:23:46.770Z,8.40
2023-03-06T13:27:00.234Z,7.90
2023-03-06T13:30:05.616Z,7.70
2023-03-06T13:32:36.324Z,7.70
2023-03-06T13:35:52.854Z,7.90
2023-03-06T13:38:54.183Z,8.00
2023-03-06T13:41:34.850Z,7.90
2023-03-06T13:44:09.007Z,8.00
2023-03-06T13:46:39.160Z,7.90
2023-03-06T13:49:22.823Z,7.70
2023-03-06T13:52:07.875Z,7.60
2023-03-06T13:54:51.104Z,7.70
2023-03-06T13:57:45.222Z,7.80
2023-03-06T14:00:37.327Z,7.90
2023-03-06T14:03:37.207Z,7.90
2023-03-06T14:06:42.541Z,7.90
2023-03-06T14:09:23.832Z,7.90
2023-03-06T14:11:56.463Z,8.00
2023-03-06T14:14:33.650Z,8.00
2023-03-06T14:17:05.271Z,8.00
2023-03-06T14:19:38.745Z,8.10
2023-03-06T14:22:08.513Z,8.00
2023-03-06T14:24:40.773Z,7.70
2023-03-06T14:27:18.785Z,7.50
2023-03-06T14:29:48.769Z,7.60
2023-03-06T14:32:22.979Z,7.60
2023-03-06T14:34:51.379Z,7.70
2023-03-06T14:37:25.105Z,7.90
2023-03-06T14:39:56.113Z,7.90
2023-03-06T14:42:27.416Z,8.00
2023-03-06T14:45:04.618Z,8.00
2023-03-06T14:47:34.714Z,7.80
2023-03-06T14:50:23.670Z,7.50
2023-03-06T14:52:55.028Z,7.40
2023-03-06T14:55:26.441Z,7.20
2023-03-06T14:57:59.495Z,7.00
2023-03-06T15:00:35.688Z,6.90
2023-03-06T15:03:07.622Z,6.80
2023-03-06T15:05:36.884Z,6.80
2023-03-06T15:08:08.066Z,6.70
2023-03-06T15:10:37.614Z,6.60
2023-03-06T15:13:12.147Z,6.60
2023-03-06T15:15:40.849Z,6.50
2023-03-06T15:18:28.626Z,6.60
2023-03-06T15:21:08.327Z,6.50
2023-03-06T15:23:38.833Z,6.50
2023-03-06T15:26:28.706Z,6.50
2023-03-06T15:29:13.004Z,6.40
2023-03-06T15:31:42.713Z,6.30
2023-03-06T15:34:27.619Z,6.30
2023-03-06T15:36:57.739Z,6.30
2023-03-06T15:39:38.872Z,6.30
2023-03-06T15:42:28.103Z,6.30
2023-03-06T15:45:03.070Z,6.40
2023-03-06T15:47:31.413Z,6.40
2023-03-06T15:49:59.712Z,6.30
2023-03-06T15:52:28.122Z,6.20
2023-03-06T15:54:56.361Z,6.00
2023-03-06T15:57:29.073Z,6.00
2023-03-06T16:00:00.120Z,6.00
2023-03-06T16:02:28.582Z,6.10
2023-03-06T16:04:56.837Z,6.10
2023-03-06T16:07:26.371Z,6.10
2023-03-06T16:09:55.793Z,6.10
2023-03-06T16:12:24.310Z,6.10
2023-03-06T16:14:52.749Z,6.10
2023-03-06T16:17:22.436Z,6.00
2023-03-06T16:19:50.917Z,6.00
2023-03-06T16:22:19.104Z,6.00
2023-03-06T16:24:47.698Z,6.00
2023-03-06T16:27:19.324Z,6.00
2023-03-06T16:29:47.666Z,6.00
2023-03-06T16:32:15.967Z,6.00
2023-03-06T16:34:45.609Z,6.00
2023-03-06T16:37:14.902Z,6.00
2023-03-06T16:39:43.229Z,6.00
2023-03-06T16:42:11.760Z,6.00
2023-03-06T16:44:40.023Z,6.00
2023-03-06T16:47:12.300Z,6.00
2023-03-06T16:49:40.670Z,5.90
2023-03-06T16:52:11.750Z,5.90
2023-03-06T16:54:40.179Z,5.90
2023-03-06T16:57:08.560Z,5.90
2023-03-06T16:59:36.817Z,5.80
2023-03-06T17:02:05.331Z,5.80
2023-03-06T17:04:33.701Z,5.70
2023-03-06T17:07:03.138Z,5.60
2023-03-06T17:09:32.857Z,5.50
2023-03-06T17:12:01.042Z,5.40
2023-03-06T17:14:29.809Z,5.30
2023-03-06T17:16:58.701Z,5.30
2023-03-06T17:19:27.203Z,5.20
2023-03-06T17:21:55.642Z,5.20
2023-03-06T17:24:23.997Z,5.20
2023-03-06T17:26:54.384Z,5.10
2023-03-06T17:29:22.654Z,5.10
2023-03-06T17:31:50.924Z,5.10
2023-03-06T17:34:19.112Z,5.10
2023-03-06T17:36:47.682Z,5.10
2023-03-06T17:39:16.210Z,5.10
2023-03-06T17:41:46.365Z,5.00
2023-03-06T17:44:17.213Z,5.00
2023-03-06T17:46:46.003Z,4.90
2023-03-06T17:49:14.434Z,4.80
2023-03-06T17:51:42.679Z,4.70
2023-03-06T17:54:10.829Z,4.70
2023-03-06T17:56:39.163Z,4.40
2023-03-06T17:59:07.365Z,4.30
2023-03-06T18:01:37.054Z,4.20
2023-03-06T18:04:05.596Z,4.10
2023-03-06T18:06:35.365Z,4.00
2023-03-06T18:09:04.970Z,4.10
2023-03-06T18:11:34.511Z,4.20
2023-03-06T18:14:05.530Z,4.20
2023-03-06T18:16:34.526Z,4.30
2023-03-06T18:19:04.363Z,4.30
2023-03-06T18:21:32.628Z,4.30
2023-03-06T18:24:00.909Z,4.20
2023-03-06T18:26:30.575Z,4.20
2023-03-06T18:29:02.663Z,4.20
2023-03-06T18:31:34.489Z,4.10
2023-03-06T18:34:06.503Z,4.10
2023-03-06T18:36:36.026Z,4.10
2023-03-06T18:39:07.259Z,4.10
2023-03-06T18:41:35.775Z,4.00
2023-03-06T18:44:04.735Z,4.00
2023-03-06T18:46:34.569Z,4.00
2023-03-06T18:49:04.953Z,3.90
2023-03-06T18:51:33.806Z,3.90
2023-03-06T18:54:03.795Z,3.90
2023-03-06T18:56:32.501Z,3.90
2023-03-06T18:59:02.893Z,3.80
2023-03-06T19:01:31.776Z,3.80
2023-03-06T19:04:05.883Z,3.80
2023-03-06T19:06:34.226Z,3.80
2023-03-06T19:09:02.498Z,3.80
2023-03-06T19:11:31.916Z,3.80
2023-03-06T19:14:03.913Z,3.80
2023-03-06T19:16:32.286Z,3.70
2023-03-06T19:19:00.817Z,3.70
2023-03-06T19:21:32.793Z,3.70
2023-03-06T19:24:02.747Z,3.70
2023-03-06T19:26:31.333Z,3.70
2023-03-06T19:28:59.734Z,3.60
2023-03-06T19:31:28.886Z,3.70
2023-03-06T19:33:57.929Z,3.60
2023-03-06T19:36:33.489Z,3.60
2023-03-06T19:39:05.642Z,3.60
2023-03-06T19:41:34.467Z,3.60
2023-03-06T19:44:05.193Z,3.40
2023-03-06T19:46:36.234Z,3.40
2023-03-06T19:49:11.692Z,3.30
2023-03-06T19:51:40.914Z,3.30
2023-03-06T19:54:12.263Z,3.30
2023-03-06T19:56:41.228Z,3.30
2023-03-06T19:59:09.480Z,3.30
2023-03-06T20:01:38.642Z,3.30
2023-03-06T20:04:07.012Z,3.30
2023-03-06T20:06:36.694Z,3.30
2023-03-06T20:09:07.200Z,3.30
2023-03-06T20:11:36.932Z,3.30
2023-03-06T20:14:06.976Z,3.30
2023-03-06T20:16:36.194Z,3.30
2023-03-06T20:19:05.010Z,3.30
2023-03-06T20:21:37.567Z,3.20
2023-03-06T20:24:07.084Z,3.20
2023-03-06T20:26:38.552Z,3.20
2023-03-06T20:29:07.468Z,3.20
2023-03-06T20:31:35.746Z,3.20
2023-03-06T20:34:05.158Z,3.20
2023-03-06T20:36:36.002Z,3.20
2023-03-06T20:39:09.489Z,3.10
2023-03-06T20:41:39.364Z,3.10
2023-03-06T20:44:09.865Z,3.00
2023-03-06T20:46:39.004Z,2.90
2023-03-06T20:49:08.484Z,2.90
2023-03-06T20:51:39.031Z,2.80
2023-03-06T20:54:08.656Z,2.80
2023-03-06T20:56:41.112Z,2.80
2023-03-06T20:59:10.613Z,2.70
2023-03-06T21:01:41.541Z,2.70
2023-03-06T21:04:13.513Z,2.70
2023-03-06T21:06:44.162Z,2.70
2023-03-06T21:09:12.520Z,2.70
2023-03-06T21:11:42.141Z,2.60
2023-03-06T21:14:10.791Z,2.70
2023-03-06T21:16:38.999Z,2.70
2023-03-06T21:19:07.672Z,2.70
2023-03-06T21:21:36.879Z,2.70
2023-03-06T21:24:05.729Z,2.70
2023-03-06T21:26:35.183Z,2.70
2023-03-06T21:29:06.169Z,2.70
2023-03-06T21:31:34.567Z,2.60
2023-03-06T21:34:04.893Z,2.60
2023-03-06T21:36:34.122Z,2.60
2023-03-06T21:39:06.124Z,2.60
2023-03-06T21:41:35.215Z,2.50
2023-03-06T21:44:07.068Z,2.50
2023-03-06T21:46:35.929Z,2.50
2023-03-06T21:49:05.403Z,2.50
2023-03-06T21:51:33.717Z,2.50
2023-03-06T21:54:02.178Z,2.50
2023-03-06T21:56:30.587Z,2.50
2023-03-06T21:58:59.608Z,2.50
2023-03-06T22:01:30.136Z,2.50
2023-03-06T22:03:59.965Z,2.50
2023-03-06T22:06:31.108Z,2.50
2023-03-06T22:09:00.493Z,2.50
2023-03-06T22:11:31.416Z,2.50
2023-03-06T22:13:59.897Z,2.50
2023-03-06T22:16:29.864Z,2.50
2023-03-06T22:18:58.214Z,2.40
2023-03-06T22:21:26.851Z,2.40
2023-03-06T22:23:58.572Z,2.30
2023-03-06T22:26:27.660Z,2.30
2023-03-06T22:28:56.248Z,2.30
2023-03-06T22:31:26.234Z,2.30
2023-03-06T22:33:57.305Z,2.20
2023-03-06T22:36:26.149Z,2.20
2023-03-06T22:38:56.664Z,2.20
2023-03-06T22:41:25.758Z,2.10
2023-03-06T22:43:57.225Z,2.10
2023-03-06T22:46:25.718Z,2.10
2023-03-06T22:48:57.371Z,2.00
2023-03-06T22:51:26.123Z,2.00
2023-03-06T22:53:54.404Z,1.90
2023-03-06T22:56:23.370Z,1.80
2023-03-06T22:58:51.952Z,1.80
2023-03-06T23:01:22.534Z,1.80
2023-03-06T23:03:52.980Z,1.80
2023-03-06T23:06:24.203Z,1.90
2023-03-06T23:08:54.572Z,1.90
2023-03-06T23:11:23.564Z,1.90
2023-03-06T23:14:13.183Z,1.80
2023-03-06T23:16:59.905Z,1.80
2023-03-06T23:19:46.610Z,1.80
2023-03-06T23:22:34.844Z,1.70
2023-03-06T23:25:22.034Z,1.70
2023-03-06T23:27:50.321Z,1.70
2023-03-06T23:30:18.977Z,1.70
2023-03-06T23:32:47.206Z,1.60
2023-03-06T23:35:15.537Z,1.60
2023-03-06T23:37:45.163Z,1.70
2023-03-06T23:40:14.925Z,1.70
2023-03-06T23:42:43.119Z,1.70
2023-03-06T23:45:12.726Z,1.60
2023-03-06T23:47:42.256Z,1.60
2023-03-06T23:50:11.895Z,1.60
2023-03-06T23:52:40.243Z,1.60
2023-03-06T23:55:14.030Z,1.70
2023-03-06T23:57:42.404Z,1.70
